Time;durP1;ratioP1;P1;durP2;ratioP2;P2;SDS_P1;SDS_P2;PMS_P1;PMS_P2;Temp;Humidity;BMP_temperature;BMP_pressure;BME280_temperature;BME280_humidity;BME280_pressure;Samples;Min_cycle;Max_cycle;Signal;HPM_P1;HPM_P2
2022/10/18 00:00:54;;;;;;;;;13.75;13.00;;;;;20.11;76.03;101853.47;2107525;27;47078;-63
2022/10/18 00:01:55;;;;;;;;;10.67;10.00;;;;;20.08;76.10;101846.41;2111778;27;45887;-64
2022/10/18 00:02:55;;;;;;;;;10.67;9.67;;;;;20.09;76.05;101847.28;2119217;27;46781;-64
2022/10/18 00:03:55;;;;;;;;;10.00;9.67;;;;;20.08;75.46;101845.53;2117873;27;45881;-66
2022/10/18 00:04:56;;;;;;;;;12.33;11.67;;;;;20.09;75.79;101858.06;2120546;27;46813;-65
2022/10/18 00:05:56;;;;;;;;;10.67;9.33;;;;;20.07;75.50;101851.84;2121224;27;46221;-65
2022/10/18 00:06:57;;;;;;;;;11.67;11.67;;;;;20.07;75.93;101854.53;2120921;27;46291;-65
2022/10/18 00:07:58;;;;;;;;;10.33;9.67;;;;;20.06;75.68;101847.38;2115652;27;46362;-65
2022/10/18 00:08:58;;;;;;;;;11.00;11.00;;;;;20.08;75.83;101856.31;2113196;27;46452;-66
2022/10/18 00:09:58;;;;;;;;;14.00;11.33;;;;;20.07;75.53;101846.44;2111105;27;46755;-65
2022/10/18 00:10:59;;;;;;;;;10.67;10.67;;;;;20.07;75.91;101846.44;2119357;27;46334;-64
2022/10/18 00:11:59;;;;;;;;;8.67;8.67;;;;;20.07;75.89;101850.00;2117035;27;46575;-65
2022/10/18 00:13:00;;;;;;;;;9.33;9.33;;;;;20.08;75.87;101845.53;2114803;27;46407;-65
2022/10/18 00:14:00;;;;;;;;;14.00;12.33;;;;;20.07;75.41;101850.00;2119992;27;45955;-65
2022/10/18 00:15:06;;;;;;;;;11.67;11.67;;;;;20.07;75.76;101846.44;2106935;27;46599;-65
2022/10/18 00:16:11;;;;;;;;;11.75;11.75;;;;;20.05;75.68;101845.63;2105182;27;46916;-65
2022/10/18 00:17:12;;;;;;;;;10.25;10.25;;;;;20.05;75.88;101849.22;2115152;27;46766;-65
2022/10/18 00:18:12;;;;;;;;;8.33;8.33;;;;;20.06;76.10;101847.38;2120835;27;46307;-64
2022/10/18 00:19:12;;;;;;;;;11.67;10.67;;;;;20.03;75.62;101843.00;2107617;27;46396;-64
2022/10/18 00:20:13;;;;;;;;;11.33;11.33;;;;;20.03;75.63;101851.09;2109748;27;45392;-65
2022/10/18 00:21:16;;;;;;;;;9.67;9.00;;;;;20.03;76.04;101852.91;2118169;27;46285;-64
2022/10/18 00:22:17;;;;;;;;;8.50;8.25;;;;;20.03;75.79;101859.19;2117641;27;46754;-65
2022/10/18 00:23:17;;;;;;;;;12.00;12.00;;;;;20.01;75.66;101860.19;2117607;27;46267;-66
2022/10/18 00:24:17;;;;;;;;;11.33;11.33;;;;;20.02;76.07;101870.91;2119820;27;46393;-64
2022/10/18 00:25:18;;;;;;;;;10.00;10.00;;;;;20.02;75.67;101872.72;2115468;27;46689;-65
2022/10/18 00:26:21;;;;;;;;;10.67;10.67;;;;;20.01;75.98;101876.38;2116412;27;46699;-65
2022/10/18 00:27:22;;;;;;;;;9.00;9.00;;;;;20.01;75.65;101873.66;2121607;27;46081;-66
2022/10/18 00:28:22;;;;;;;;;7.33;7.33;;;;;20.01;76.06;101873.66;2093947;28;46366;-65
2022/10/18 00:29:22;;;;;;;;;11.67;11.00;;;;;20.00;75.99;101875.50;2094848;28;46186;-64
2022/10/18 00:30:24;;;;;;;;;10.00;10.00;;;;;20.00;75.89;101870.09;2117641;27;46149;-65
2022/10/18 00:31:27;;;;;;;;;11.00;11.00;;;;;20.00;75.83;101870.09;2115522;27;46566;-65
2022/10/18 00:32:27;;;;;;;;;12.00;10.75;;;;;19.99;76.01;101869.22;2119198;27;46668;-64
2022/10/18 00:33:28;;;;;;;;;9.33;9.33;;;;;20.01;75.91;101870.97;2115553;27;46720;-65
2022/10/18 00:34:28;;;;;;;;;10.00;10.00;;;;;20.01;75.90;101876.38;2117544;27;46619;-66
2022/10/18 00:35:28;;;;;;;;;12.67;11.67;;;;;20.01;75.40;101871.84;2112769;27;46165;-65
2022/10/18 00:36:31;;;;;;;;;11.00;11.00;;;;;20.02;75.67;101872.72;2117028;27;45471;-65
2022/10/18 00:37:32;;;;;;;;;10.50;9.25;;;;;20.02;75.98;101872.72;2113142;27;46340;-64
2022/10/18 00:38:33;;;;;;;;;11.25;11.00;;;;;20.01;75.47;101871.84;2113749;27;46717;-66
2022/10/18 00:39:33;;;;;;;;;10.33;9.67;;;;;20.01;75.59;101871.84;2093756;28;46260;-64
2022/10/18 00:40:34;;;;;;;;;12.33;11.33;;;;;20.01;76.08;101868.28;2094883;28;46677;-65
2022/10/18 00:41:36;;;;;;;;;9.67;9.67;;;;;20.01;75.94;101869.16;2112643;27;46255;-65
2022/10/18 00:42:37;;;;;;;;;12.00;12.00;;;;;20.00;75.95;101870.09;2109001;27;46094;-65
2022/10/18 00:44:00;;;;;;;;;10.33;10.33;;;;;19.99;76.09;101860.28;2110390;27;46186;-66
2022/10/18 00:45:17;;;;;;;;;11.00;10.00;;;;;19.98;75.36;101859.41;2102858;28;47964;-64
2022/10/18 00:46:17;;;;;;;;;13.25;12.00;;;;;19.97;75.99;101854.94;2106996;27;46489;-65
2022/10/18 00:47:18;;;;;;;;;12.00;11.67;;;;;19.98;75.78;101863.91;2119655;27;46558;-64
2022/10/18 00:48:19;;;;;;;;;12.00;12.00;;;;;19.97;75.76;101860.34;2119875;27;46383;-64
2022/10/18 00:49:36;;;;;;;;;13.75;11.75;;;;;19.98;75.59;101855.81;2116936;27;46628;-65
2022/10/18 00:50:37;;;;;;;;;11.25;11.25;;;;;19.98;75.51;101862.09;2113409;27;45513;-66
2022/10/18 00:51:43;;;;;;;;;15.67;13.00;;;;;20.00;75.98;101867.41;2114662;27;46601;-64
2022/10/18 00:52:47;;;;;;;;;12.50;12.50;;;;;19.98;75.60;101862.09;2116618;27;45778;-63
2022/10/18 00:53:48;;;;;;;;;11.75;11.75;;;;;20.00;75.82;101870.09;2119580;27;46396;-65
2022/10/18 00:54:51;;;;;;;;;12.00;11.25;;;;;20.00;75.90;101870.09;2113986;27;46457;-64
2022/10/18 00:55:51;;;;;;;;;10.75;10.75;;;;;19.99;75.51;101866.53;2114392;27;46351;-65
2022/10/18 00:56:51;;;;;;;;;11.67;11.67;;;;;20.00;75.62;101875.50;2121314;27;47178;-65
2022/10/18 00:57:53;;;;;;;;;13.33;11.00;;;;;19.99;75.43;101871.91;2120602;27;45539;-65
2022/10/18 00:58:54;;;;;;;;;13.50;13.25;;;;;19.99;75.17;101873.75;2119861;27;46525;-65
2022/10/18 00:59:54;;;;;;;;;12.33;12.33;;;;;19.98;75.39;101869.28;2121118;27;46999;-64
2022/10/18 01:00:55;;;;;;;;;13.67;13.67;;;;;19.98;75.63;101869.28;2110749;27;46244;-64
2022/10/18 01:01:56;;;;;;;;;12.00;10.00;;;;;19.97;75.48;101865.72;2110912;27;45182;-64
2022/10/18 01:02:58;;;;;;;;;13.33;12.00;;;;;19.98;76.08;101869.28;2119293;27;46788;-65
2022/10/18 01:03:58;;;;;;;;;14.25;14.25;;;;;19.96;75.56;101866.66;2094366;28;46976;-64
2022/10/18 01:04:59;;;;;;;;;14.00;13.67;;;;;19.98;75.93;101863.91;2086458;28;45969;-64
2022/10/18 01:05:59;;;;;;;;;15.00;15.00;;;;;19.98;75.99;101867.47;2111265;27;46839;-65
2022/10/18 01:07:18;;;;;;;;;12.67;12.00;;;;;19.98;75.52;101872.88;2121069;27;47150;-64
2022/10/18 01:08:39;;;;;;;;;12.00;10.25;;;;;19.97;75.99;101881.91;2121483;27;46178;-64
2022/10/18 01:10:04;;;;;;;;;14.50;14.00;;;;;19.99;76.00;101880.00;2119790;27;46412;-65
2022/10/18 01:11:37;;;;;;;;;11.75;11.75;;;;;19.98;76.08;101886.34;2113288;27;46709;-64
2022/10/18 01:12:46;;;;;;;;;12.75;12.75;;;;;19.98;75.82;101878.25;2112668;27;46582;-66
2022/10/18 01:13:53;;;;;;;;;10.00;10.00;;;;;19.97;76.30;101886.41;2115537;27;46539;-64
2022/10/18 01:15:13;;;;;;;;;12.25;12.00;;;;;19.97;75.78;101886.41;2117021;27;46562;-64
2022/10/18 01:16:32;;;;;;;;;8.50;8.50;;;;;19.96;76.14;101881.97;2117658;27;46768;-65
2022/10/18 01:17:51;;;;;;;;;9.25;8.00;;;;;19.94;75.96;101884.69;2112750;27;46538;-65
2022/10/18 01:19:00;;;;;;;;;7.00;5.50;;;;;19.95;76.23;101883.78;2113357;27;47193;-64
2022/10/18 01:20:22;;;;;;;;;11.00;11.00;;;;;19.95;75.87;101883.78;2115712;27;46378;-64
2022/10/18 01:21:43;;;;;;;;;9.25;9.25;;;;;19.95;76.05;101888.28;2120306;27;46438;-65
2022/10/18 01:22:50;;;;;;;;;8.00;8.00;;;;;19.95;75.87;101880.22;2112729;27;46400;-65
2022/10/18 01:24:27;;;;;;;;;11.75;11.75;;;;;19.95;75.68;101882.91;2114442;27;46545;-64
2022/10/18 01:25:49;;;;;;;;;9.25;8.00;;;;;19.93;75.91;101888.31;2112710;27;45352;-64
2022/10/18 01:27:20;;;;;;;;;9.00;9.00;;;;;19.93;75.52;101892.84;2112152;27;47011;-65
2022/10/18 01:28:35;;;;;;;;;8.50;8.50;;;;;19.92;75.98;101888.41;2117380;27;46671;-65
2022/10/18 01:30:01;;;;;;;;;10.00;10.00;;;;;19.92;75.90;101891.09;2120791;27;47174;-66
2022/10/18 01:31:15;;;;;;;;;11.50;9.50;;;;;19.89;75.59;101884.03;2113168;27;46431;-63
2022/10/18 01:32:21;;;;;;;;;9.00;8.25;;;;;19.89;75.75;101886.72;2121312;27;46425;-64
2022/10/18 01:33:49;;;;;;;;;9.00;9.00;;;;;19.89;75.73;101885.84;2120921;27;46328;-65
2022/10/18 01:34:54;;;;;;;;;12.50;10.75;;;;;19.88;75.58;101884.97;2117528;27;46423;-65
2022/10/18 01:36:05;;;;;;;;;11.75;11.75;;;;;19.88;75.82;101884.97;2104585;27;47163;-64
2022/10/18 01:37:11;;;;;;;;;10.50;10.50;;;;;19.89;76.01;101885.84;2110122;27;46225;-63
2022/10/18 01:38:16;;;;;;;;;13.00;11.50;;;;;19.89;75.25;101891.22;2119820;27;45276;-66
2022/10/18 01:39:28;;;;;;;;;10.25;10.25;;;;;19.87;75.97;101894.00;2114707;27;47060;-64
2022/10/18 01:40:30;;;;;;;;;11.75;11.00;;;;;19.88;75.59;101894.88;2114162;27;46543;-66
2022/10/18 01:41:34;;;;;;;;;12.25;10.75;;;;;19.88;75.17;101897.56;2112299;27;46290;-65
2022/10/18 01:42:34;;;;;;;;;12.25;12.25;;;;;19.86;75.95;101892.25;2113915;27;48060;-66
2022/10/18 01:43:36;;;;;;;;;7.33;5.67;;;;;19.87;75.74;101891.28;2114654;27;46585;-65
2022/10/18 01:44:39;;;;;;;;;15.00;11.00;;;;;19.87;75.92;101894.00;2114801;27;46794;-66
2022/10/18 01:45:41;;;;;;;;;10.00;10.00;;;;;19.87;75.68;101894.00;2118242;27;45893;-65
2022/10/18 01:46:42;;;;;;;;;11.50;11.50;;;;;19.87;75.60;101895.81;2114073;27;46593;-65
2022/10/18 01:47:45;;;;;;;;;10.50;10.50;;;;;19.87;75.84;101893.13;2112876;27;46694;-64
2022/10/18 01:48:47;;;;;;;;;12.75;12.75;;;;;19.87;75.29;101894.00;2113877;27;46448;-65
2022/10/18 01:49:47;;;;;;;;;11.75;11.75;;;;;19.86;76.15;101889.53;2118836;27;45562;-63
2022/10/18 01:50:47;;;;;;;;;13.33;10.33;;;;;19.86;76.04;101894.94;2115387;27;46951;-65
2022/10/18 01:51:48;;;;;;;;;10.33;10.33;;;;;19.86;75.66;101889.53;2119564;27;46452;-66
2022/10/18 01:52:50;;;;;;;;;10.00;10.00;;;;;19.85;75.62;101890.50;2117087;27;46651;-65
2022/10/18 01:53:50;;;;;;;;;14.75;13.00;;;;;19.85;75.59;101898.56;2120929;27;47237;-64
2022/10/18 01:54:52;;;;;;;;;12.00;12.00;;;;;19.85;76.04;101895.88;2118886;27;46330;-64
2022/10/18 01:56:12;;;;;;;;;10.00;10.00;;;;;19.84;76.11;101895.94;2114697;27;46588;-66
2022/10/18 01:57:39;;;;;;;;;12.75;12.00;;;;;19.84;75.85;101895.94;2112562;27;46400;-65
2022/10/18 01:58:52;;;;;;;;;12.50;11.75;;;;;19.83;75.94;101895.06;2112017;27;46949;-65
2022/10/18 02:00:34;;;;;;;;;13.50;12.50;;;;;19.81;76.08;101879.88;2116888;27;46265;-65
2022/10/18 02:01:50;;;;;;;;;12.75;12.25;;;;;19.79;75.95;101879.94;2076687;28;46702;-64
2022/10/18 02:03:03;;;;;;;;;11.25;11.00;;;;;19.78;75.99;101877.31;2075250;28;46960;-64
2022/10/18 02:04:32;;;;;;;;;11.25;11.25;;;;;19.78;75.74;101877.31;2075895;28;46344;-65
2022/10/18 02:05:55;;;;;;;;;14.50;13.75;;;;;19.77;76.35;101878.28;2077985;28;45872;-65
2022/10/18 02:07:04;;;;;;;;;12.50;11.75;;;;;19.77;76.39;101876.44;2075773;28;46470;-64
2022/10/18 02:08:13;;;;;;;;;12.25;11.25;;;;;19.76;76.26;101872.00;2078637;28;46443;-65
2022/10/18 02:09:45;;;;;;;;;16.00;13.25;;;;;19.77;76.26;101872.88;2077518;28;45260;-64
2022/10/18 02:10:49;;;;;;;;;8.75;8.75;;;;;19.76;76.02;101868.44;2078417;28;46780;-64
2022/10/18 02:11:53;;;;;;;;;7.75;7.75;;;;;19.77;76.42;101875.56;2077022;28;46920;-65
2022/10/18 02:12:56;;;;;;;;;10.50;10.00;;;;;19.76;76.49;101872.00;2080400;28;47066;-65
2022/10/18 02:14:04;;;;;;;;;13.25;11.25;;;;;19.77;76.41;101868.38;2077824;28;46505;-65
2022/10/18 02:15:07;;;;;;;;;12.75;12.75;;;;;19.76;76.10;101872.00;2079095;28;46696;-65
2022/10/18 02:16:12;;;;;;;;;15.00;15.00;;;;;19.76;76.47;101877.41;2077389;28;47174;-64
2022/10/18 02:17:15;;;;;;;;;13.25;13.25;;;;;19.76;76.35;101879.22;2078573;28;46833;-65
2022/10/18 02:18:21;;;;;;;;;13.00;13.00;;;;;19.74;76.30;101884.66;2078264;28;46615;-64
2022/10/18 02:19:32;;;;;;;;;12.75;12.00;;;;;19.73;76.15;101880.22;2082901;28;46316;-64
2022/10/18 02:20:35;;;;;;;;;14.75;13.50;;;;;19.73;76.41;101884.72;2068248;28;47064;-65
2022/10/18 02:21:39;;;;;;;;;15.50;13.00;;;;;19.72;76.63;101880.28;2071076;28;46064;-64
2022/10/18 02:22:41;;;;;;;;;15.75;15.75;;;;;19.70;76.67;101877.66;2075856;28;45788;-64
2022/10/18 02:23:44;;;;;;;;;14.75;13.50;;;;;19.70;76.21;101885.75;2079830;28;46245;-65
2022/10/18 02:24:49;;;;;;;;;16.50;14.00;;;;;19.69;76.67;101876.78;2078904;28;47570;-64
2022/10/18 02:25:51;;;;;;;;;14.00;13.25;;;;;19.69;76.59;101881.25;2079172;28;47003;-65
2022/10/18 02:26:51;;;;;;;;;13.50;13.50;;;;;19.69;76.34;101879.47;2084100;28;46438;-64
2022/10/18 02:27:53;;;;;;;;;12.00;12.00;;;;;19.70;76.87;101885.75;2077592;28;45803;-64
2022/10/18 02:28:54;;;;;;;;;14.75;14.75;;;;;19.71;76.51;101882.09;2079452;28;46603;-64
2022/10/18 02:29:54;;;;;;;;;15.00;14.00;;;;;19.72;76.39;101882.97;2079473;28;46855;-64
2022/10/18 02:31:12;;;;;;;;;15.67;13.67;;;;;19.74;76.67;101881.97;2079101;28;46327;-66
2022/10/18 02:32:24;;;;;;;;;12.25;12.25;;;;;19.75;76.37;101885.53;2079007;28;46829;-64
2022/10/18 02:33:46;;;;;;;;;16.50;16.25;;;;;19.75;76.56;101882.84;2079191;28;46508;-65
2022/10/18 02:34:56;;;;;;;;;18.00;17.25;;;;;19.75;76.54;101883.72;2084872;28;46667;-65
2022/10/18 02:36:09;;;;;;;;;12.50;12.50;;;;;19.75;76.14;101889.09;2074032;28;46354;-64
2022/10/18 02:37:10;;;;;;;;;14.25;14.00;;;;;19.76;76.48;101895.38;2073478;28;46504;-66
2022/10/18 02:38:13;;;;;;;;;12.00;12.00;;;;;19.74;76.36;101895.44;2092470;28;46623;-65
2022/10/18 02:39:21;;;;;;;;;14.40;14.40;;;;;19.75;76.04;101893.63;2099498;28;46996;-65
2022/10/18 02:40:23;;;;;;;;;15.75;15.75;;;;;19.74;76.58;101897.25;2099273;28;46593;-64
2022/10/18 02:41:26;;;;;;;;;17.00;15.75;;;;;19.73;76.23;101899.06;2096524;28;46355;-64
2022/10/18 02:42:36;;;;;;;;;13.75;12.75;;;;;19.72;76.43;101900.03;2101385;28;46645;-64
2022/10/18 02:43:37;;;;;;;;;20.50;16.50;;;;;19.72;76.17;101901.84;2100770;27;46829;-64
2022/10/18 02:44:37;;;;;;;;;14.00;14.00;;;;;19.72;76.19;101901.84;2099228;28;46843;-65
2022/10/18 02:45:38;;;;;;;;;14.00;14.00;;;;;19.72;76.19;101896.44;2096712;28;46472;-66
2022/10/18 02:46:39;;;;;;;;;16.00;16.00;;;;;19.70;76.67;101896.50;2100139;27;46470;-65
2022/10/18 02:47:40;;;;;;;;;17.67;16.00;;;;;19.70;76.24;101899.22;2098794;28;46702;-65
2022/10/18 02:48:40;;;;;;;;;17.00;15.75;;;;;19.69;76.70;101900.13;2096613;28;46734;-66
2022/10/18 02:49:40;;;;;;;;;10.67;10.67;;;;;19.69;76.86;101906.41;2098532;28;46217;-64
2022/10/18 02:50:41;;;;;;;;;12.33;12.33;;;;;19.69;76.19;101911.81;2097783;28;46823;-65
2022/10/18 02:51:41;;;;;;;;;14.67;14.67;;;;;19.69;76.28;101908.19;2097213;27;46485;-64
2022/10/18 02:52:41;;;;;;;;;17.33;14.67;;;;;19.70;76.76;101907.28;2091329;28;45571;-65
2022/10/18 02:53:42;;;;;;;;;14.50;14.00;;;;;19.71;76.38;101902.78;2095837;28;45991;-65
2022/10/18 02:54:42;;;;;;;;;15.00;15.00;;;;;19.71;76.12;101900.09;2098803;28;46420;-65
2022/10/18 02:55:42;;;;;;;;;16.33;15.00;;;;;19.71;76.76;101902.78;2087725;28;46586;-65
2022/10/18 02:56:43;;;;;;;;;16.00;13.33;;;;;19.72;76.26;101905.41;2095111;28;46908;-66
2022/10/18 02:57:43;;;;;;;;;15.33;14.00;;;;;19.72;76.78;101913.47;2103681;28;46906;-64
2022/10/18 02:58:43;;;;;;;;;2.00;2.00;;;;;19.73;76.46;101909.84;2096831;28;48307;-64
2022/10/18 02:59:43;;;;;;;;;20.50;20.50;;;;;19.74;76.20;101908.91;2100441;27;45856;-66
2022/10/18 03:00:44;;;;;;;;;13.00;12.67;;;;;19.75;76.93;101915.16;2097755;28;46341;-65
2022/10/18 03:01:44;;;;;;;;;15.50;13.25;;;;;19.75;76.58;101918.75;2096382;28;46992;-64
2022/10/18 03:02:45;;;;;;;;;18.67;17.00;;;;;19.74;76.72;101914.28;2097597;28;46488;-64
2022/10/18 03:03:45;;;;;;;;;15.67;15.33;;;;;19.74;76.06;101917.00;2102616;27;45888;-65
2022/10/18 03:04:46;;;;;;;;;16.67;14.33;;;;;19.75;76.18;101916.03;2102424;28;47335;-65
2022/10/18 03:05:50;;;;;;;;;19.67;18.67;;;;;19.74;76.63;101908.03;2104626;27;46321;-64
2022/10/18 03:06:51;;;;;;;;;18.25;16.75;;;;;19.74;76.30;101916.13;2097665;27;46894;-65
2022/10/18 03:07:51;;;;;;;;;18.67;18.67;;;;;19.75;76.39;101912.47;2099680;28;46306;-64
2022/10/18 03:08:51;;;;;;;;;17.33;16.00;;;;;19.75;76.66;101904.41;2101278;28;46442;-64
2022/10/18 03:09:52;;;;;;;;;14.67;14.33;;;;;19.74;76.50;101900.81;2096482;28;46181;-65
2022/10/18 03:10:52;;;;;;;;;15.00;15.00;;;;;19.75;76.62;101907.97;2096149;28;46859;-64
2022/10/18 03:11:52;;;;;;;;;19.50;19.50;;;;;19.74;76.66;101902.66;2102688;28;46151;-68
2022/10/18 03:12:53;;;;;;;;;18.00;17.33;;;;;19.74;76.68;101908.03;2100470;28;46053;-65
2022/10/18 03:13:53;;;;;;;;;15.00;14.67;;;;;19.74;76.28;101908.03;2103681;27;45642;-65
2022/10/18 03:14:53;;;;;;;;;20.50;18.50;;;;;19.74;76.75;101906.22;2100653;28;46639;-64
2022/10/18 03:15:54;;;;;;;;;19.67;17.67;;;;;19.74;76.33;101908.03;2103963;28;45523;-65
2022/10/18 03:16:54;;;;;;;;;17.00;17.00;;;;;19.74;76.44;101905.34;2099897;28;46255;-65
2022/10/18 03:17:54;;;;;;;;;18.00;18.00;;;;;19.73;76.60;101899.06;2105094;28;45860;-66
2022/10/18 03:18:55;;;;;;;;;20.75;18.00;;;;;19.73;76.70;101906.28;2097851;28;46576;-65
2022/10/18 03:19:55;;;;;;;;;23.67;20.33;;;;;19.73;76.57;101908.97;2101903;27;46375;-64
2022/10/18 03:20:55;;;;;;;;;18.00;17.00;;;;;19.72;76.17;101909.91;2103513;28;45284;-65
2022/10/18 03:21:55;;;;;;;;;17.25;17.25;;;;;19.73;76.01;101914.34;2090013;28;46903;-64
2022/10/18 03:22:56;;;;;;;;;16.00;14.00;;;;;19.74;76.67;101916.13;2102592;28;45960;-64
2022/10/18 03:23:57;;;;;;;;;17.75;17.75;;;;;19.73;76.57;101917.94;2098619;28;47092;-65
2022/10/18 03:24:58;;;;;;;;;18.40;18.00;;;;;19.74;76.12;101917.00;2100720;27;46366;-66
2022/10/18 03:25:58;;;;;;;;;21.00;20.25;;;;;19.74;76.40;101926.88;2102319;28;45622;-66
2022/10/18 03:26:58;;;;;;;;;15.00;14.50;;;;;19.74;76.12;101922.38;2103948;27;46299;-65
2022/10/18 03:27:59;;;;;;;;;17.00;17.00;;;;;19.75;76.50;101929.50;2102687;27;46566;-66
2022/10/18 03:28:59;;;;;;;;;18.25;18.25;;;;;19.74;76.29;101930.44;2103570;27;46518;-65
2022/10/18 03:30:00;;;;;;;;;18.00;18.00;;;;;19.75;76.72;101931.34;2100249;27;46624;-65
2022/10/18 03:31:01;;;;;;;;;18.25;18.25;;;;;19.75;76.19;101934.03;2103889;28;45908;-64
2022/10/18 03:32:02;;;;;;;;;17.25;17.25;;;;;19.75;76.48;101934.03;2096936;27;46792;-64
2022/10/18 03:33:03;;;;;;;;;18.50;18.50;;;;;19.76;76.64;101935.78;2096289;28;46581;-65
2022/10/18 03:34:04;;;;;;;;;19.00;18.00;;;;;19.76;76.22;101927.69;2102023;28;46427;-64
2022/10/18 03:35:06;;;;;;;;;22.75;21.00;;;;;19.76;76.71;101933.97;2107718;27;46580;-65
2022/10/18 03:36:06;;;;;;;;;19.20;19.20;;;;;19.78;76.31;101936.59;2119867;27;47055;-65
2022/10/18 03:37:06;;;;;;;;;17.75;17.75;;;;;19.78;76.75;101933.88;2115496;27;46159;-65
2022/10/18 03:38:07;;;;;;;;;23.00;22.00;;;;;19.78;76.43;101933.88;2113071;27;45558;-65
2022/10/18 03:39:08;;;;;;;;;21.75;21.75;;;;;19.78;76.49;101936.59;2113422;27;45767;-66
2022/10/18 03:40:09;;;;;;;;;20.80;20.80;;;;;19.78;76.73;101940.16;2113248;27;47243;-65
2022/10/18 03:41:09;;;;;;;;;21.25;20.75;;;;;19.78;76.62;101936.59;2120828;27;46566;-66
2022/10/18 03:42:09;;;;;;;;;20.00;18.25;;;;;19.78;76.18;101937.47;2117154;27;46225;-66
2022/10/18 03:43:10;;;;;;;;;21.00;19.25;;;;;19.79;76.22;101935.63;2118556;27;46418;-65
2022/10/18 03:44:10;;;;;;;;;21.50;21.00;;;;;19.79;76.41;101941.03;2119008;27;46281;-65
2022/10/18 03:45:10;;;;;;;;;16.50;15.00;;;;;19.80;76.49;101942.78;2113185;27;45652;-64
2022/10/18 03:46:11;;;;;;;;;17.33;16.00;;;;;19.80;76.97;101940.09;2115875;27;46283;-63
2022/10/18 03:47:11;;;;;;;;;18.25;18.25;;;;;19.81;76.50;101940.03;2120181;27;46257;-66
2022/10/18 03:48:12;;;;;;;;;19.33;17.00;;;;;19.81;76.71;101936.44;2117634;27;46222;-65
2022/10/18 03:49:12;;;;;;;;;18.25;17.25;;;;;19.81;76.68;101942.72;2117909;27;45148;-65
2022/10/18 03:50:12;;;;;;;;;19.75;18.75;;;;;19.81;76.65;101941.84;2117563;27;46856;-64
2022/10/18 03:51:13;;;;;;;;;18.75;17.75;;;;;19.80;76.69;101938.28;2118474;27;46122;-66
2022/10/18 03:52:13;;;;;;;;;19.50;18.50;;;;;19.81;76.67;101936.44;2120772;27;46442;-64
2022/10/18 03:53:13;;;;;;;;;19.75;19.00;;;;;19.81;76.62;101944.53;2119652;27;46669;-64
2022/10/18 03:54:14;;;;;;;;;19.33;18.33;;;;;19.81;76.64;101942.72;2118866;27;46460;-64
2022/10/18 03:55:14;;;;;;;;;16.25;15.50;;;;;19.81;76.47;101941.84;2113864;27;46346;-65
2022/10/18 03:56:14;;;;;;;;;20.25;15.75;;;;;19.80;76.33;101945.47;2110643;27;46811;-64
2022/10/18 03:57:15;;;;;;;;;18.50;16.25;;;;;19.80;76.12;101945.47;2109648;27;46247;-65
2022/10/18 03:58:15;;;;;;;;;18.00;16.50;;;;;19.80;75.91;101951.75;2121477;27;46239;-65
2022/10/18 03:59:16;;;;;;;;;20.00;19.00;;;;;19.81;76.36;101952.63;2115823;27;46419;-65
2022/10/18 04:00:16;;;;;;;;;20.00;18.75;;;;;19.79;76.02;101949.97;2114132;27;46031;-66
2022/10/18 04:01:17;;;;;;;;;17.33;17.33;;;;;19.79;75.87;101952.69;2114565;27;46350;-64
2022/10/18 04:02:17;;;;;;;;;16.00;16.00;;;;;19.79;76.34;101951.81;2116068;27;44897;-65
2022/10/18 04:03:20;;;;;;;;;18.33;17.33;;;;;19.79;75.95;101944.59;2120623;27;46758;-65
2022/10/18 04:04:20;;;;;;;;;21.75;18.50;;;;;19.79;76.25;101952.69;2118308;27;46547;-66
2022/10/18 04:05:22;;;;;;;;;20.33;17.67;;;;;19.78;76.47;101952.75;2117892;27;46892;-64
2022/10/18 04:06:23;;;;;;;;;21.00;20.75;;;;;19.77;75.84;101953.69;2107627;27;46442;-65
2022/10/18 04:07:23;;;;;;;;;18.00;18.00;;;;;19.78;76.47;101958.13;2108658;27;46446;-65
2022/10/18 04:08:23;;;;;;;;;16.67;16.67;;;;;19.77;76.12;101959.94;2109542;27;45848;-64
2022/10/18 04:09:24;;;;;;;;;20.00;18.75;;;;;19.77;76.39;101954.56;2108506;27;45646;-65
2022/10/18 04:10:24;;;;;;;;;17.67;16.33;;;;;19.77;76.40;101957.25;2117140;27;44993;-64
2022/10/18 04:11:24;;;;;;;;;23.25;19.50;;;;;19.78;75.85;101959.00;2118255;27;46790;-64
2022/10/18 04:12:25;;;;;;;;;19.50;18.75;;;;;19.79;76.06;101967.97;2121337;27;46160;-65
2022/10/18 04:13:25;;;;;;;;;17.75;17.75;;;;;19.77;75.95;101951.88;2116299;27;46898;-63
2022/10/18 04:14:25;;;;;;;;;18.00;17.00;;;;;19.78;75.87;101960.81;2115867;27;45482;-66
2022/10/18 04:15:26;;;;;;;;;18.33;16.33;;;;;19.77;76.36;101962.66;2113689;27;46481;-66
2022/10/18 04:16:26;;;;;;;;;21.00;20.00;;;;;19.77;75.93;101957.25;2116446;27;46410;-64
2022/10/18 04:17:26;;;;;;;;;17.00;16.25;;;;;19.77;76.36;101956.38;2117329;27;46222;-65
2022/10/18 04:18:27;;;;;;;;;17.75;17.75;;;;;19.77;75.97;101967.16;2117475;27;45741;-65
2022/10/18 04:19:27;;;;;;;;;19.50;18.00;;;;;19.76;75.99;101963.59;2116435;27;46102;-64
2022/10/18 04:20:28;;;;;;;;;24.00;22.50;;;;;19.75;76.31;101961.84;2115943;27;46553;-65
2022/10/18 04:21:28;;;;;;;;;18.75;18.50;;;;;19.75;76.07;101959.13;2114642;27;45740;-65
2022/10/18 04:22:28;;;;;;;;;19.25;19.00;;;;;19.76;76.02;101960.91;2115584;27;46772;-64
2022/10/18 04:23:29;;;;;;;;;20.33;19.00;;;;;19.75;76.33;101967.22;2120649;27;45237;-66
2022/10/18 04:24:29;;;;;;;;;22.67;20.67;;;;;19.75;76.49;101959.13;2116517;27;46631;-65
2022/10/18 04:25:30;;;;;;;;;20.75;19.00;;;;;19.76;75.77;101962.72;2119831;27;46496;-65
2022/10/18 04:26:30;;;;;;;;;19.00;19.00;;;;;19.77;75.77;101961.78;2116454;27;46242;-64
2022/10/18 04:27:30;;;;;;;;;20.67;19.67;;;;;19.76;75.75;101955.50;2109382;27;46532;-66
2022/10/18 04:28:32;;;;;;;;;20.00;18.00;;;;;19.77;76.39;101953.69;2107752;27;45974;-65
2022/10/18 04:29:33;;;;;;;;;20.75;20.75;;;;;19.76;76.28;101952.81;2114317;27;46401;-65
2022/10/18 04:30:33;;;;;;;;;19.67;18.33;;;;;19.76;76.33;101950.13;2118036;27;47350;-65
2022/10/18 04:31:34;;;;;;;;;19.00;18.67;;;;;19.77;76.52;101956.38;2113603;27;46514;-65
2022/10/18 04:32:34;;;;;;;;;19.50;19.50;;;;;19.77;76.52;101957.25;2110005;27;47124;-65
2022/10/18 04:33:35;;;;;;;;;16.00;16.00;;;;;19.77;76.01;101961.78;2109133;27;45647;-65
2022/10/18 04:34:35;;;;;;;;;22.75;22.75;;;;;19.78;75.90;101958.13;2115654;27;46504;-66
2022/10/18 04:35:35;;;;;;;;;22.00;21.00;;;;;19.77;75.92;101957.25;2114734;27;46711;-65
2022/10/18 04:36:36;;;;;;;;;19.00;18.00;;;;;19.77;75.94;101959.94;2116014;27;45962;-65
2022/10/18 04:37:36;;;;;;;;;22.25;19.50;;;;;19.76;76.29;101949.25;2118739;27;46762;-66
2022/10/18 04:38:36;;;;;;;;;20.00;17.67;;;;;19.76;76.16;101951.94;2116782;27;46373;-66
2022/10/18 04:39:37;;;;;;;;;19.00;18.67;;;;;19.76;75.96;101949.25;2115622;27;46080;-65
2022/10/18 04:40:37;;;;;;;;;19.67;19.00;;;;;19.74;75.71;101949.31;2107450;27;46212;-64
2022/10/18 04:41:37;;;;;;;;;21.67;20.00;;;;;19.75;75.94;101953.75;2111992;27;46158;-65
2022/10/18 04:42:37;;;;;;;;;20.00;20.00;;;;;19.73;75.81;101952.06;2115590;27;46970;-65
2022/10/18 04:43:38;;;;;;;;;20.33;20.33;;;;;19.72;76.38;101953.88;2116441;27;46404;-66
2022/10/18 04:44:38;;;;;;;;;19.33;19.33;;;;;19.72;75.92;101953.88;2115931;27;46750;-65
2022/10/18 04:45:38;;;;;;;;;17.67;16.67;;;;;19.71;76.40;101957.53;2117083;27;46028;-66
2022/10/18 04:46:39;;;;;;;;;20.50;19.75;;;;;19.70;76.18;101955.75;2113933;27;46559;-66
2022/10/18 04:47:39;;;;;;;;;23.00;22.33;;;;;19.68;76.59;101957.63;2115623;27;47359;-65
2022/10/18 04:48:39;;;;;;;;;19.75;19.00;;;;;19.67;76.39;101962.13;2116246;27;46670;-64
2022/10/18 04:49:40;;;;;;;;;21.75;20.75;;;;;19.67;76.24;101958.56;2117231;27;45548;-65
2022/10/18 04:50:40;;;;;;;;;20.75;20.75;;;;;19.65;76.37;101958.63;2117403;27;46458;-66
2022/10/18 04:51:40;;;;;;;;;24.25;23.25;;;;;19.64;76.07;101958.69;2121285;27;47199;-66